Time;durP1;ratioP1;P1;durP2;ratioP2;P2;SDS_P1;SDS_P2;PMS_P1;PMS_P2;Temp;Humidity;BMP_temperature;BMP_pressure;BME280_temperature;BME280_humidity;BME280_pressure;Samples;Min_cycle;Max_cycle;Signal;HPM_P1;HPM_P2
2021/11/26 00:00:12;;;;;;;;;;;4.80;99.90;;;;;;5066062;28;19959;-79
2021/11/26 00:02:39;;;;;;;;;;;4.80;99.90;;;;;;5065020;28;19932;-76
2021/11/26 00:05:08;;;;;;;;;;;4.80;99.90;;;;;;5064311;28;19947;-72
2021/11/26 00:07:35;;;;;;;;;;;4.80;99.90;;;;;;5068394;28;19927;-75
2021/11/26 00:10:01;;;;;;;;;;;4.90;99.90;;;;;;5069492;28;19912;-79
2021/11/26 00:12:36;;;;;;;;;;;4.80;99.90;;;;;;5069924;28;19955;-81
2021/11/26 00:20:15;;;;;;;;;;;4.90;99.90;;;;;;5372427;23;19921;-79
2021/11/26 00:22:41;;;;;;;;;;;4.90;99.90;;;;;;5074601;28;19960;-73
2021/11/26 00:25:09;;;;;;;;;;;4.90;99.90;;;;;;5067779;28;19979;-80
2021/11/26 00:27:35;;;;;;;;;;;4.90;99.90;;;;;;5059971;28;19909;-75
2021/11/26 00:30:02;;;;;;;;;;;4.90;99.90;;;;;;5063634;28;19925;-79
2021/11/26 00:32:29;;;;;;;;;;;4.90;99.90;;;;;;5069094;28;19979;-80
2021/11/26 00:34:55;;;;;;;;;;;4.90;99.90;;;;;;5070623;28;19968;-74
2021/11/26 00:37:23;;;;;;;;;;;4.90;99.90;;;;;;5073627;28;19944;-71
2021/11/26 00:39:50;;;;;;;;;;;4.90;99.90;;;;;;5066799;28;19921;-80
2021/11/26 00:42:17;;;;;;;;;;;4.90;99.90;;;;;;5068863;28;19921;-80
2021/11/26 00:44:44;;;;;;;;;;;4.90;99.90;;;;;;5066725;28;19937;-80
2021/11/26 00:47:11;;;;;;;;;;;4.90;99.90;;;;;;5071676;28;19936;-78
2021/11/26 00:49:38;;;;;;;;;;;4.90;99.90;;;;;;5065088;28;19909;-79
2021/11/26 00:52:05;;;;;;;;;;;4.90;99.90;;;;;;5068261;28;19932;-79
2021/11/26 00:54:33;;;;;;;;;;;4.90;99.90;;;;;;5063487;28;19952;-82
2021/11/26 00:57:01;;;;;;;;;;;4.80;99.90;;;;;;5055680;28;19921;-79
2021/11/26 00:59:28;;;;;;;;;;;4.80;99.90;;;;;;5061562;28;19917;-70
2021/11/26 01:01:55;;;;;;;;;;;4.80;99.90;;;;;;5067145;28;19944;-71
2021/11/26 01:04:21;;;;;;;;;;;4.80;99.90;;;;;;5066645;28;20012;-72
2021/11/26 01:06:48;;;;;;;;;;;4.80;99.90;;;;;;5067247;28;19909;-80
2021/11/26 01:09:15;;;;;;;;;;;4.80;99.90;;;;;;5073043;28;19921;-79
2021/11/26 01:11:43;;;;;;;;;;;4.80;99.90;;;;;;5062088;28;19933;-79
2021/11/26 01:14:09;;;;;;;;;;;4.80;99.90;;;;;;5061948;28;20015;-77
2021/11/26 01:19:12;;;;;;;;;;;4.80;99.90;;;;;;5683857;23;19909;-79
2021/11/26 01:21:38;;;;;;;;;;;4.80;99.90;;;;;;5084776;28;19967;-80
2021/11/26 01:24:05;;;;;;;;;;;4.80;99.90;;;;;;5084886;28;19948;-80
2021/11/26 01:26:32;;;;;;;;;;;4.80;99.90;;;;;;5084624;28;19956;-80
2021/11/26 01:29:00;;;;;;;;;;;4.80;99.90;;;;;;5087094;28;19916;-80
2021/11/26 01:31:26;;;;;;;;;;;4.80;99.90;;;;;;5094343;28;19988;-81
2021/11/26 01:33:54;;;;;;;;;;;4.80;99.90;;;;;;5087662;28;19920;-80
2021/11/26 01:36:21;;;;;;;;;;;4.70;99.90;;;;;;5093899;28;19916;-76
2021/11/26 01:38:48;;;;;;;;;;;4.60;99.90;;;;;;5089691;28;19943;-81
2021/11/26 01:41:14;;;;;;;;;;;4.60;99.90;;;;;;5089938;28;19980;-79
2021/11/26 01:43:41;;;;;;;;;;;4.60;99.90;;;;;;5089808;28;20397;-78
2021/11/26 01:46:09;;;;;;;;;;;4.70;99.90;;;;;;5080353;28;19916;-75
2021/11/26 01:48:37;;;;;;;;;;;4.80;99.90;;;;;;5084725;28;19972;-77
2021/11/26 02:06:41;;;;;;;;;;;4.90;99.90;;;;;;5053796;28;19909;-73
2021/11/26 02:09:09;;;;;;;;;;;4.90;99.90;;;;;;5081569;28;19941;-74
2021/11/26 02:11:36;;;;;;;;;;;4.90;99.90;;;;;;5084882;28;19916;-80
2021/11/26 02:14:03;;;;;;;;;;;4.90;99.90;;;;;;5074382;28;19948;-83
2021/11/26 02:16:29;;;;;;;;;;;4.80;99.90;;;;;;5066958;28;20047;-84
2021/11/26 02:18:56;;;;;;;;;;;4.80;99.90;;;;;;5068797;28;19952;-86
2021/11/26 02:21:24;;;;;;;;;;;4.70;99.90;;;;;;5064870;28;19921;-87
2021/11/26 02:23:51;;;;;;;;;;;4.70;99.90;;;;;;5068478;28;19936;-80
2021/11/26 02:26:17;;;;;;;;;;;4.80;99.90;;;;;;5068611;28;19956;-81
2021/11/26 02:28:44;;;;;;;;;;;4.80;99.90;;;;;;5068151;28;19936;-75
2021/11/26 02:31:11;;;;;;;;;;;4.80;99.90;;;;;;5065937;28;19956;-72
2021/11/26 02:33:38;;;;;;;;;;;4.80;99.90;;;;;;5065779;28;19936;-72
2021/11/26 02:36:05;;;;;;;;;;;4.80;99.90;;;;;;5074013;28;19913;-74
2021/11/26 02:38:33;;;;;;;;;;;4.80;99.90;;;;;;5070305;28;19947;-77
2021/11/26 02:40:59;;;;;;;;;;;4.80;99.90;;;;;;5060443;28;19913;-73
2021/11/26 02:43:26;;;;;;;;;;;4.80;99.90;;;;;;5068169;28;19932;-75
2021/11/26 02:45:53;;;;;;;;;;;4.80;99.90;;;;;;5068204;28;19909;-75
2021/11/26 02:48:20;;;;;;;;;;;4.70;99.90;;;;;;5126525;23;19972;-82
2021/11/26 02:50:47;;;;;;;;;;;4.70;99.90;;;;;;5044073;28;19925;-81
2021/11/26 02:58:26;;;;;;;;;;;4.70;99.90;;;;;;5385150;23;19910;-74
2021/11/26 03:00:55;;;;;;;;;;;5.30;99.90;;;;;;5026911;28;19933;-76
2021/11/26 03:03:21;;;;;;;;;;;4.60;99.90;;;;;;5015831;28;19909;-76
2021/11/26 03:05:50;;;;;;;;;;;4.60;99.90;;;;;;5028678;28;19909;-78
2021/11/26 03:08:17;;;;;;;;;;;4.60;99.90;;;;;;5032933;28;19916;-73
2021/11/26 03:10:44;;;;;;;;;;;4.50;99.90;;;;;;5029321;28;19926;-74
2021/11/26 03:13:11;;;;;;;;;;;4.50;99.90;;;;;;5025466;28;19909;-78
2021/11/26 03:15:40;;;;;;;;;;;4.40;99.90;;;;;;5030082;28;19914;-79
2021/11/26 03:18:08;;;;;;;;;;;4.40;99.90;;;;;;5024584;28;19917;-79
2021/11/26 03:20:35;;;;;;;;;;;4.50;99.90;;;;;;5025841;28;19933;-78
2021/11/26 03:23:01;;;;;;;;;;;4.40;99.90;;;;;;5025255;28;19934;-79
2021/11/26 03:25:28;;;;;;;;;;;4.30;99.90;;;;;;5027528;28;19964;-79
2021/11/26 03:27:55;;;;;;;;;;;4.30;99.90;;;;;;5023574;28;19985;-79
2021/11/26 03:30:22;;;;;;;;;;;4.30;99.90;;;;;;5020973;28;19965;-79
2021/11/26 03:32:50;;;;;;;;;;;4.30;99.90;;;;;;5022289;28;19949;-80
2021/11/26 03:35:17;;;;;;;;;;;4.30;99.90;;;;;;5023625;28;19997;-80
2021/11/26 03:37:44;;;;;;;;;;;4.30;99.90;;;;;;5020807;28;19944;-80
2021/11/26 03:40:11;;;;;;;;;;;4.30;99.90;;;;;;5023859;28;19933;-81
2021/11/26 03:42:39;;;;;;;;;;;4.30;99.90;;;;;;5020924;28;19989;-80
2021/11/26 03:45:06;;;;;;;;;;;4.30;99.90;;;;;;5010019;28;20005;-79
2021/11/26 03:47:34;;;;;;;;;;;4.30;99.90;;;;;;5010873;28;19926;-80
2021/11/26 03:50:02;;;;;;;;;;;4.30;99.90;;;;;;5020863;28;19926;-80
2021/11/26 03:52:29;;;;;;;;;;;4.40;99.90;;;;;;5016007;28;19960;-80
2021/11/26 03:54:55;;;;;;;;;;;4.30;99.90;;;;;;5023339;28;19957;-79
2021/11/26 03:57:22;;;;;;;;;;;4.30;99.90;;;;;;5014103;28;20024;-78
2021/11/26 03:59:49;;;;;;;;;;;4.30;99.90;;;;;;5015710;28;20006;-79
2021/11/26 04:02:15;;;;;;;;;;;4.30;99.90;;;;;;5017341;28;22490;-79
2021/11/26 04:04:42;;;;;;;;;;;4.30;99.90;;;;;;5015574;28;19932;-79
2021/11/26 04:07:10;;;;;;;;;;;4.30;99.90;;;;;;5017522;28;19936;-79
2021/11/26 04:09:37;;;;;;;;;;;4.40;99.90;;;;;;5020559;28;19960;-80
2021/11/26 04:12:04;;;;;;;;;;;4.40;99.90;;;;;;5023136;28;19909;-80
2021/11/26 04:14:31;;;;;;;;;;;4.40;99.90;;;;;;5019420;28;19925;-80
2021/11/26 04:16:57;;;;;;;;;;;4.40;99.90;;;;;;5016435;28;19930;-79
2021/11/26 04:19:24;;;;;;;;;;;4.40;99.90;;;;;;5017036;28;19964;-79
2021/11/26 04:21:51;;;;;;;;;;;4.40;99.90;;;;;;5022684;28;20031;-79
2021/11/26 04:24:19;;;;;;;;;;;4.40;99.90;;;;;;5020496;28;19972;-80
2021/11/26 04:26:45;;;;;;;;;;;4.40;99.90;;;;;;5023746;28;19967;-80
2021/11/26 04:29:12;;;;;;;;;;;4.40;99.90;;;;;;5024625;28;19910;-80
2021/11/26 04:31:39;;;;;;;;;;;4.40;99.90;;;;;;5024742;28;19916;-81
2021/11/26 04:34:07;;;;;;;;;;;4.40;99.90;;;;;;5022169;28;20196;-80
2021/11/26 04:36:34;;;;;;;;;;;4.40;99.90;;;;;;5026596;28;19953;-79
2021/11/26 04:39:00;;;;;;;;;;;4.40;99.90;;;;;;5026043;28;19929;-76
2021/11/26 04:41:28;;;;;;;;;;;4.30;99.90;;;;;;5023226;28;19914;-80
2021/11/26 04:43:55;;;;;;;;;;;4.40;99.90;;;;;;5028632;28;20398;-80
2021/11/26 04:46:21;;;;;;;;;;;4.30;99.90;;;;;;5031482;28;20001;-80
2021/11/26 04:48:48;;;;;;;;;;;4.30;99.90;;;;;;5026800;28;19910;-81
2021/11/26 04:51:15;;;;;;;;;;;4.30;99.90;;;;;;5026988;28;19933;-81
2021/11/26 04:53:42;;;;;;;;;;;4.30;99.90;;;;;;5030212;28;19961;-81
2021/11/26 04:56:09;;;;;;;;;;;4.30;99.90;;;;;;5031381;28;19916;-80
2021/11/26 04:58:37;;;;;;;;;;;4.20;99.90;;;;;;5027748;28;19941;-80
2021/11/26 05:01:03;;;;;;;;;;;4.30;99.90;;;;;;5030843;28;19933;-78
2021/11/26 05:03:30;;;;;;;;;;;4.20;99.90;;;;;;5030140;28;19989;-80
2021/11/26 05:05:57;;;;;;;;;;;4.30;99.90;;;;;;5033795;28;19940;-81
2021/11/26 05:08:25;;;;;;;;;;;4.20;99.90;;;;;;5029267;28;19985;-81
2021/11/26 05:10:53;;;;;;;;;;;4.20;99.90;;;;;;5027101;28;19932;-81
2021/11/26 05:13:20;;;;;;;;;;;4.20;99.90;;;;;;5058207;23;19930;-80
2021/11/26 05:15:48;;;;;;;;;;;4.20;99.90;;;;;;5012672;28;19910;-80
2021/11/26 05:18:16;;;;;;;;;;;5.00;99.90;;;;;;5010560;28;19910;-79
2021/11/26 05:26:18;;;;;;;;;;;4.20;99.90;;;;;;5009974;28;19916;-82
2021/11/26 05:28:45;;;;;;;;;;;4.10;99.90;;;;;;5012315;28;19928;-82
2021/11/26 05:31:13;;;;;;;;;;;4.20;99.90;;;;;;5013926;28;19910;-82
2021/11/26 05:33:40;;;;;;;;;;;4.10;99.90;;;;;;5016265;28;19921;-82
2021/11/26 05:36:07;;;;;;;;;;;4.10;99.90;;;;;;5017895;28;19930;-82
2021/11/26 05:38:33;;;;;;;;;;;3.80;99.90;;;;;;5017307;28;19941;-82
2021/11/26 05:41:00;;;;;;;;;;;4.00;99.90;;;;;;5015094;28;19930;-81
2021/11/26 05:43:27;;;;;;;;;;;4.00;99.90;;;;;;5009488;28;19973;-78
2021/11/26 05:45:53;;;;;;;;;;;4.00;99.90;;;;;;5014636;28;19952;-82
2021/11/26 05:48:21;;;;;;;;;;;4.00;99.90;;;;;;5019014;28;19922;-81
2021/11/26 05:50:48;;;;;;;;;;;4.00;99.90;;;;;;5017846;28;19926;-82
2021/11/26 05:53:15;;;;;;;;;;;3.90;99.90;;;;;;5012330;28;19950;-80
2021/11/26 05:55:42;;;;;;;;;;;3.90;99.90;;;;;;5012912;28;19953;-81
2021/11/26 05:58:09;;;;;;;;;;;3.90;99.90;;;;;;5019447;28;19957;-79
2021/11/26 06:00:36;;;;;;;;;;;3.90;99.90;;;;;;5018409;28;19926;-82
2021/11/26 06:03:02;;;;;;;;;;;3.90;99.90;;;;;;5015508;28;19957;-82
2021/11/26 06:05:30;;;;;;;;;;;3.90;99.90;;;;;;5011819;28;19989;-81
2021/11/26 06:07:57;;;;;;;;;;;3.80;99.90;;;;;;5014436;28;19925;-82
2021/11/26 06:10:24;;;;;;;;;;;3.80;99.90;;;;;;5011591;28;19997;-78
2021/11/26 06:12:52;;;;;;;;;;;3.80;99.90;;;;;;5013545;28;19941;-79
2021/11/26 06:15:23;;;;;;;;;;;3.80;99.90;;;;;;5011244;28;19953;-81
2021/11/26 06:17:49;;;;;;;;;;;3.80;99.90;;;;;;5011454;28;19926;-81
2021/11/26 06:20:17;;;;;;;;;;;3.70;99.90;;;;;;5003556;28;20313;-80
2021/11/26 06:22:45;;;;;;;;;;;3.80;99.90;;;;;;5009551;28;19961;-80
2021/11/26 06:25:13;;;;;;;;;;;3.70;99.90;;;;;;5007015;28;19969;-80
2021/11/26 06:27:40;;;;;;;;;;;3.70;99.90;;;;;;5012090;28;19953;-80
2021/11/26 06:30:10;;;;;;;;;;;3.70;99.90;;;;;;4991880;28;19957;-80
2021/11/26 06:32:37;;;;;;;;;;;3.70;99.90;;;;;;5001506;28;19989;-79
2021/11/26 06:35:04;;;;;;;;;;;3.60;99.90;;;;;;5004047;28;19926;-79
2021/11/26 06:37:31;;;;;;;;;;;3.70;99.90;;;;;;5008500;28;19926;-80
2021/11/26 06:39:59;;;;;;;;;;;3.70;99.90;;;;;;5011142;28;20485;-81
2021/11/26 06:42:25;;;;;;;;;;;3.70;99.90;;;;;;5006110;28;19959;-80
2021/11/26 06:44:52;;;;;;;;;;;3.60;99.90;;;;;;5015619;28;19926;-82
2021/11/26 06:47:19;;;;;;;;;;;3.60;99.90;;;;;;5013596;28;19934;-80
2021/11/26 06:49:45;;;;;;;;;;;3.60;99.90;;;;;;5005072;28;19926;-80
2021/11/26 06:52:15;;;;;;;;;;;3.60;99.90;;;;;;5008483;28;19950;-80
2021/11/26 06:54:45;;;;;;;;;;;3.50;99.90;;;;;;5013684;28;19987;-80
2021/11/26 06:57:13;;;;;;;;;;;3.50;99.90;;;;;;5008047;28;19929;-80
2021/11/26 06:59:40;;;;;;;;;;;3.50;99.90;;;;;;5012521;28;19981;-80
2021/11/26 07:02:06;;;;;;;;;;;3.50;99.90;;;;;;5008449;28;19976;-80
2021/11/26 07:04:33;;;;;;;;;;;3.50;99.90;;;;;;5004068;28;19926;-81
2021/11/26 07:07:00;;;;;;;;;;;3.50;99.90;;;;;;5005261;28;19926;-80
2021/11/26 07:09:26;;;;;;;;;;;3.40;99.90;;;;;;5003291;28;19930;-80
2021/11/26 07:11:53;;;;;;;;;;;3.50;99.90;;;;;;5006623;28;19929;-81
2021/11/26 07:14:21;;;;;;;;;;;3.50;99.90;;;;;;5009541;28;19930;-80
2021/11/26 07:16:48;;;;;;;;;;;3.40;99.90;;;;;;5008746;28;19930;-80
2021/11/26 07:19:15;;;;;;;;;;;3.40;99.90;;;;;;5012561;28;19932;-80
2021/11/26 07:21:42;;;;;;;;;;;3.40;99.90;;;;;;5011194;28;19986;-79
2021/11/26 07:24:08;;;;;;;;;;;3.40;99.90;;;;;;5008304;28;19925;-81
2021/11/26 07:26:35;;;;;;;;;;;3.40;99.90;;;;;;5000044;28;19925;-80
2021/11/26 07:29:02;;;;;;;;;;;3.40;99.90;;;;;;5006871;28;20020;-80
2021/11/26 07:31:30;;;;;;;;;;;3.40;99.90;;;;;;5010337;28;19926;-79
2021/11/26 07:33:57;;;;;;;;;;;3.40;99.90;;;;;;5100525;22;19921;-80
2021/11/26 07:36:24;;;;;;;;;;;3.40;99.90;;;;;;5038618;28;19913;-82
2021/11/26 07:41:16;;;;;;;;;;;3.40;99.90;;;;;;5228961;23;20002;-82
2021/11/26 07:43:43;;;;;;;;;;;3.40;99.90;;;;;;5023210;28;20386;-78
2021/11/26 07:46:10;;;;;;;;;;;3.40;99.90;;;;;;5017942;28;20320;-78
2021/11/26 07:48:38;;;;;;;;;;;3.40;99.90;;;;;;5025930;28;20480;-80
2021/11/26 07:51:04;;;;;;;;;;;3.40;99.90;;;;;;5027787;28;19960;-80
2021/11/26 07:53:32;;;;;;;;;;;3.40;99.90;;;;;;5022903;28;20020;-79
2021/11/26 07:55:59;;;;;;;;;;;3.40;99.90;;;;;;5018245;28;19933;-79
2021/11/26 07:58:26;;;;;;;;;;;3.40;99.90;;;;;;5022347;28;20416;-77
2021/11/26 08:00:53;;;;;;;;;;;3.40;99.90;;;;;;5017022;28;20460;-78
2021/11/26 08:03:21;;;;;;;;;;;3.40;99.90;;;;;;5024182;28;19937;-79
2021/11/26 08:05:49;;;;;;;;;;;3.50;99.90;;;;;;5024384;28;19929;-78
2021/11/26 08:08:21;;;;;;;;;;;3.50;99.90;;;;;;5019205;28;19932;-79
2021/11/26 08:10:48;;;;;;;;;;;3.50;99.90;;;;;;5020012;28;19925;-78
2021/11/26 08:13:15;;;;;;;;;;;3.60;99.90;;;;;;5028907;28;20354;-78
2021/11/26 08:15:42;;;;;;;;;;;3.60;99.90;;;;;;5021366;28;19925;-78
2021/11/26 08:18:08;;;;;;;;;;;3.70;99.90;;;;;;5027995;28;19916;-80
2021/11/26 08:20:36;;;;;;;;;;;3.70;99.90;;;;;;5046291;28;19956;-79
2021/11/26 08:23:05;;;;;;;;;;;3.70;99.90;;;;;;5036913;28;20382;-78
2021/11/26 08:25:32;;;;;;;;;;;3.70;99.90;;;;;;5015970;28;19932;-78
2021/11/26 08:27:58;;;;;;;;;;;3.70;99.90;;;;;;5021861;28;19925;-78
2021/11/26 08:30:25;;;;;;;;;;;3.70;99.90;;;;;;5101746;22;20259;-78
2021/11/26 08:32:53;;;;;;;;;;;3.80;99.90;;;;;;4996235;28;20091;-77
2021/11/26 08:35:19;;;;;;;;;;;3.70;99.90;;;;;;5010058;28;19932;-77
2021/11/26 08:37:46;;;;;;;;;;;3.70;99.90;;;;;;5002201;28;19932;-80
2021/11/26 08:40:15;;;;;;;;;;;3.70;99.90;;;;;;5021780;28;19981;-80
2021/11/26 08:42:41;;;;;;;;;;;3.80;99.90;;;;;;5022715;28;19968;-80
2021/11/26 08:45:09;;;;;;;;;;;3.80;99.90;;;;;;5026454;28;20013;-79
2021/11/26 08:47:36;;;;;;;;;;;3.90;99.90;;;;;;5031604;28;19909;-79
2021/11/26 08:50:03;;;;;;;;;;;4.00;99.90;;;;;;5011806;28;19925;-80
2021/11/26 08:52:31;;;;;;;;;;;4.00;99.90;;;;;;5023319;28;19925;-80
2021/11/26 08:54:59;;;;;;;;;;;4.00;99.90;;;;;;5021106;28;20039;-80
2021/11/26 08:57:29;;;;;;;;;;;4.10;99.90;;;;;;5021771;28;19939;-80
2021/11/26 08:59:56;;;;;;;;;;;4.10;99.90;;;;;;5016330;28;19933;-80
2021/11/26 09:02:23;;;;;;;;;;;4.20;99.90;;;;;;5011356;28;19980;-79
2021/11/26 09:04:49;;;;;;;;;;;4.20;99.90;;;;;;5022757;28;19925;-79
2021/11/26 09:07:16;;;;;;;;;;;4.20;99.90;;;;;;5007757;28;19932;-79
2021/11/26 09:09:43;;;;;;;;;;;4.20;99.90;;;;;;5009025;28;19980;-79
2021/11/26 09:12:10;;;;;;;;;;;4.10;99.90;;;;;;5004630;28;20394;-77
2021/11/26 09:14:38;;;;;;;;;;;4.20;99.90;;;;;;5001830;28;19964;-77
2021/11/26 09:17:05;;;;;;;;;;;4.20;99.90;;;;;;4996716;28;19933;-78
2021/11/26 09:19:32;;;;;;;;;;;4.30;99.90;;;;;;4995540;28;19993;-77
2021/11/26 09:21:59;;;;;;;;;;;4.30;99.90;;;;;;5002269;28;19933;-78
2021/11/26 09:24:25;;;;;;;;;;;4.30;99.90;;;;;;5006067;28;19929;-79
2021/11/26 09:26:52;;;;;;;;;;;4.30;99.90;;;;;;5020978;28;19926;-80
2021/11/26 09:29:19;;;;;;;;;;;4.40;99.90;;;;;;5023520;28;20025;-80
2021/11/26 09:31:47;;;;;;;;;;;4.40;99.90;;;;;;5092155;22;20000;-80
2021/11/26 09:36:57;;;;;;;;;;;4.50;99.90;;;;;;5063253;22;19933;-78
2021/11/26 09:39:25;;;;;;;;;;;4.50;99.90;;;;;;4986992;28;19933;-78
2021/11/26 09:41:53;;;;;;;;;;;4.40;99.90;;;;;;4989726;28;19930;-80
2021/11/26 09:44:19;;;;;;;;;;;4.50;99.90;;;;;;5011712;28;19910;-73
2021/11/26 09:46:48;;;;;;;;;;;4.50;99.90;;;;;;5024668;23;20353;-75
2021/11/26 09:49:16;;;;;;;;;;;4.50;99.90;;;;;;5000752;28;20314;-75
2021/11/26 09:51:43;;;;;;;;;;;4.50;99.90;;;;;;5001857;28;19976;-80
2021/11/26 09:54:10;;;;;;;;;;;4.60;99.90;;;;;;5032090;28;19932;-82
2021/11/26 09:56:37;;;;;;;;;;;4.50;99.90;;;;;;5039391;28;19909;-79
2021/11/26 09:59:04;;;;;;;;;;;4.50;99.90;;;;;;5008190;28;20445;-75
2021/11/26 10:01:31;;;;;;;;;;;4.50;99.90;;;;;;5002756;28;19932;-73
2021/11/26 10:03:59;;;;;;;;;;;4.60;99.90;;;;;;5002596;28;19925;-75
2021/11/26 10:06:27;;;;;;;;;;;4.60;99.90;;;;;;5031054;22;20000;-80
2021/11/26 10:09:01;;;;;;;;;;;4.60;99.90;;;;;;5006850;28;19934;-80
2021/11/26 10:11:28;;;;;;;;;;;4.60;99.90;;;;;;5043052;22;19940;-79
2021/11/26 10:13:55;;;;;;;;;;;4.60;99.90;;;;;;5002017;28;19933;-79
2021/11/26 10:18:55;;;;;;;;;;;4.70;99.90;;;;;;5103640;23;19913;-81
2021/11/26 10:21:25;;;;;;;;;;;4.70;99.90;;;;;;5037515;28;19925;-77
2021/11/26 10:23:53;;;;;;;;;;;4.70;99.90;;;;;;5027569;28;20490;-79
2021/11/26 10:26:21;;;;;;;;;;;4.70;99.90;;;;;;5032901;28;20076;-76
2021/11/26 10:28:50;;;;;;;;;;;4.80;99.90;;;;;;5022098;28;19929;-79
2021/11/26 10:31:21;;;;;;;;;;;4.70;99.90;;;;;;5037296;23;19925;-77
2021/11/26 10:33:47;;;;;;;;;;;4.70;99.90;;;;;;5033267;28;20314;-79
2021/11/26 10:36:14;;;;;;;;;;;4.80;99.90;;;;;;5032448;28;19932;-78
2021/11/26 10:38:43;;;;;;;;;;;4.70;99.90;;;;;;5026720;28;19931;-79
2021/11/26 10:41:12;;;;;;;;;;;4.70;99.90;;;;;;5029378;28;20416;-78
2021/11/26 10:43:48;;;;;;;;;;;4.70;99.90;;;;;;5028245;28;19985;-79
2021/11/26 10:46:40;;;;;;;;;;;4.60;99.90;;;;;;5019064;28;19998;-79
2021/11/26 10:59:58;;;;;;;;;;;4.60;99.90;;;;;;5060215;28;19913;-81
2021/11/26 11:02:27;;;;;;;;;;;4.50;99.90;;;;;;5040842;28;19909;-77
2021/11/26 11:04:54;;;;;;;;;;;4.50;99.90;;;;;;5046313;28;19925;-79
2021/11/26 11:07:21;;;;;;;;;;;4.60;99.90;;;;;;5054536;28;19925;-80
2021/11/26 11:09:51;;;;;;;;;;;4.50;99.90;;;;;;5052047;28;19916;-80
2021/11/26 11:12:18;;;;;;;;;;;4.50;99.90;;;;;;5208719;23;19967;-82
2021/11/26 11:14:54;;;;;;;;;;;4.60;99.90;;;;;;5036294;28;19910;-71
2021/11/26 11:20:24;;;;;;;;;;;4.50;99.90;;;;;;6095982;22;20063;-79
2021/11/26 11:25:35;;;;;;;;;;;4.60;99.90;;;;;;5693239;23;19917;-86
2021/11/26 11:28:03;;;;;;;;;;;4.50;99.90;;;;;;5035451;28;19925;-81
2021/11/26 11:30:30;;;;;;;;;;;4.60;99.90;;;;;;5024958;28;19925;-80
2021/11/26 11:32:58;;;;;;;;;;;4.60;99.90;;;;;;5035668;28;19937;-76
2021/11/26 11:38:02;;;;;;;;;;;4.60;99.90;;;;;;5721702;23;19925;-81
2021/11/26 11:40:30;;;;;;;;;;;4.70;99.90;;;;;;5039689;28;19914;-71
2021/11/26 11:45:23;;;;;;;;;;;4.70;99.90;;;;;;5237386;23;19936;-81
2021/11/26 11:52:58;;;;;;;;;;;4.70;99.90;;;;;;5025569;28;19936;-80
2021/11/26 11:55:28;;;;;;;;;;;4.60;99.90;;;;;;5025208;28;19949;-80
2021/11/26 11:57:57;;;;;;;;;;;4.50;99.90;;;;;;5026532;28;19968;-76
2021/11/26 12:00:27;;;;;;;;;;;4.60;99.90;;;;;;5022153;28;19941;-82
2021/11/26 12:03:05;;;;;;;;;;;4.60;99.90;;;;;;5237601;23;19913;-81
2021/11/26 12:05:33;;;;;;;;;;;4.50;99.90;;;;;;5100507;23;19975;-78
2021/11/26 12:08:03;;;;;;;;;;;4.50;99.90;;;;;;5045271;28;19952;-81
2021/11/26 12:10:41;;;;;;;;;;;4.50;99.90;;;;;;5028141;28;19926;-78
2021/11/26 12:13:17;;;;;;;;;;;4.40;99.90;;;;;;5018154;28;20160;-80
2021/11/26 12:15:44;;;;;;;;;;;4.50;99.90;;;;;;5014131;28;19993;-80
2021/11/26 12:18:11;;;;;;;;;;;4.40;99.90;;;;;;5007788;28;20016;-79
2021/11/26 12:20:38;;;;;;;;;;;4.50;99.90;;;;;;5011738;28;19949;-79
2021/11/26 12:23:13;;;;;;;;;;;4.60;99.90;;;;;;5017839;28;20346;-78
2021/11/26 12:25:49;;;;;;;;;;;4.50;99.90;;;;;;5019226;28;19909;-79
2021/11/26 12:28:20;;;;;;;;;;;4.50;99.90;;;;;;5016365;28;19961;-80
2021/11/26 12:30:58;;;;;;;;;;;4.50;99.90;;;;;;5025921;28;19929;-82
2021/11/26 12:36:54;;;;;;;;;;;4.60;99.90;;;;;;5987930;23;19936;-80
2021/11/26 12:39:23;;;;;;;;;;;4.60;99.90;;;;;;5011172;28;19936;-78
2021/11/26 12:41:53;;;;;;;;;;;4.50;99.90;;;;;;5018707;28;19921;-80
2021/11/26 12:44:21;;;;;;;;;;;4.60;99.90;;;;;;5014752;28;19918;-82
2021/11/26 12:46:55;;;;;;;;;;;4.50;99.90;;;;;;4989969;28;19914;-79
2021/11/26 12:52:00;;;;;;;;;;;4.60;99.90;;;;;;5018524;28;19938;-80
2021/11/26 12:54:28;;;;;;;;;;;4.50;99.90;;;;;;5019490;28;19949;-81
2021/11/26 12:56:57;;;;;;;;;;;4.50;99.90;;;;;;5000207;28;19965;-79
2021/11/26 12:59:28;;;;;;;;;;;4.60;99.90;;;;;;5007311;28;19968;-81
2021/11/26 13:01:55;;;;;;;;;;;4.60;99.90;;;;;;5014265;28;20020;-80
2021/11/26 13:04:21;;;;;;;;;;;4.60;99.90;;;;;;5001780;28;19929;-80
2021/11/26 13:06:50;;;;;;;;;;;4.60;99.90;;;;;;5004315;28;19911;-75
2021/11/26 13:09:16;;;;;;;;;;;4.60;99.90;;;;;;5013894;28;19911;-74
2021/11/26 13:11:45;;;;;;;;;;;4.60;99.90;;;;;;5011312;28;19976;-75
2021/11/26 13:14:13;;;;;;;;;;;4.60;99.90;;;;;;5025820;28;19909;-72
2021/11/26 13:16:40;;;;;;;;;;;4.60;99.90;;;;;;5014930;28;19909;-82
2021/11/26 13:19:11;;;;;;;;;;;4.60;99.90;;;;;;5018916;28;19989;-79
2021/11/26 13:21:38;;;;;;;;;;;4.60;99.90;;;;;;5014574;28;19914;-79
2021/11/26 13:24:05;;;;;;;;;;;4.60;99.90;;;;;;4997900;28;19952;-79
2021/11/26 13:26:31;;;;;;;;;;;4.60;99.90;;;;;;5014255;28;19986;-80
2021/11/26 13:28:58;;;;;;;;;;;4.60;99.90;;;;;;5016003;28;19926;-80
2021/11/26 13:31:27;;;;;;;;;;;4.60;99.90;;;;;;5010322;28;19989;-80
2021/11/26 13:33:55;;;;;;;;;;;4.60;99.90;;;;;;5000926;28;19934;-80
2021/11/26 13:36:22;;;;;;;;;;;4.70;99.90;;;;;;5014542;28;19953;-81
2021/11/26 13:38:50;;;;;;;;;;;4.80;99.90;;;;;;5021869;28;19945;-81
2021/11/26 13:41:20;;;;;;;;;;;4.80;99.90;;;;;;5008400;28;19925;-82
2021/11/26 13:43:47;;;;;;;;;;;4.80;99.90;;;;;;5009397;28;19925;-79
2021/11/26 13:46:19;;;;;;;;;;;4.80;99.90;;;;;;5004539;28;20429;-79
2021/11/26 13:48:49;;;;;;;;;;;4.90;99.90;;;;;;5001969;28;19996;-78
2021/11/26 13:51:18;;;;;;;;;;;4.90;99.90;;;;;;5021155;28;19965;-76
2021/11/26 13:53:47;;;;;;;;;;;4.80;99.90;;;;;;5009594;28;19910;-79
2021/11/26 13:56:14;;;;;;;;;;;4.80;99.90;;;;;;5019953;28;19977;-81
2021/11/26 13:58:50;;;;;;;;;;;4.80;99.90;;;;;;5004177;28;20380;-80
2021/11/26 14:01:22;;;;;;;;;;;4.80;99.90;;;;;;5010127;28;19933;-80
2021/11/26 14:03:55;;;;;;;;;;;4.70;99.90;;;;;;5003623;28;20538;-81
2021/11/26 14:06:22;;;;;;;;;;;4.70;99.90;;;;;;5009268;28;19918;-80
2021/11/26 14:08:49;;;;;;;;;;;4.70;99.90;;;;;;5011105;28;19961;-81
2021/11/26 14:11:27;;;;;;;;;;;4.70;99.90;;;;;;5013601;28;19968;-82
2021/11/26 14:13:54;;;;;;;;;;;4.70;99.90;;;;;;5008527;28;19950;-81
2021/11/26 14:16:22;;;;;;;;;;;4.70;99.90;;;;;;5018590;28;19933;-81
2021/11/26 14:18:55;;;;;;;;;;;4.70;99.90;;;;;;5017903;28;19926;-81
2021/11/26 14:21:22;;;;;;;;;;;4.70;99.90;;;;;;5012902;28;20001;-80
2021/11/26 14:23:53;;;;;;;;;;;4.70;99.90;;;;;;5001913;28;19933;-80
2021/11/26 14:26:20;;;;;;;;;;;4.70;99.90;;;;;;5007434;28;19926;-78
2021/11/26 14:28:47;;;;;;;;;;;4.70;99.90;;;;;;4992428;28;20338;-79
2021/11/26 14:31:14;;;;;;;;;;;4.70;99.90;;;;;;5006856;28;19926;-83
2021/11/26 14:33:41;;;;;;;;;;;4.70;99.90;;;;;;5017967;28;19948;-75
2021/11/26 14:36:10;;;;;;;;;;;4.70;99.90;;;;;;5002526;28;19994;-77
2021/11/26 14:38:44;;;;;;;;;;;4.70;99.90;;;;;;5019082;28;19992;-68
2021/11/26 14:41:14;;;;;;;;;;;4.60;99.90;;;;;;5009081;28;19934;-80
2021/11/26 14:43:40;;;;;;;;;;;4.70;99.90;;;;;;5020116;28;19973;-79
2021/11/26 14:46:09;;;;;;;;;;;4.70;99.90;;;;;;5007723;28;19989;-79
2021/11/26 14:48:39;;;;;;;;;;;4.60;99.90;;;;;;5007782;28;19933;-81
2021/11/26 14:51:06;;;;;;;;;;;4.60;99.90;;;;;;5003635;28;20316;-81
2021/11/26 14:53:35;;;;;;;;;;;4.50;99.90;;;;;;5014789;28;19975;-79
2021/11/26 14:56:02;;;;;;;;;;;4.50;99.90;;;;;;4999851;28;19930;-80
2021/11/26 14:58:29;;;;;;;;;;;4.50;99.90;;;;;;5010689;28;19914;-81
2021/11/26 15:00:56;;;;;;;;;;;4.50;99.90;;;;;;5014473;28;19914;-80
2021/11/26 15:03:23;;;;;;;;;;;4.50;99.90;;;;;;5018724;28;19914;-82
2021/11/26 15:05:49;;;;;;;;;;;4.50;99.90;;;;;;5019870;28;19978;-81
2021/11/26 15:10:52;;;;;;;;;;;4.60;99.90;;;;;;5759608;22;19930;-80
2021/11/26 15:13:20;;;;;;;;;;;4.60;99.90;;;;;;5025783;28;19944;-83
2021/11/26 15:15:47;;;;;;;;;;;4.60;99.90;;;;;;5031138;28;19952;-80
2021/11/26 15:18:14;;;;;;;;;;;4.60;99.90;;;;;;5125522;23;19977;-79
2021/11/26 15:20:41;;;;;;;;;;;4.60;99.90;;;;;;4996231;28;19917;-80
2021/11/26 15:23:11;;;;;;;;;;;4.70;99.90;;;;;;5000208;28;19941;-81
2021/11/26 15:25:38;;;;;;;;;;;4.70;99.90;;;;;;5013754;28;19932;-76
2021/11/26 15:28:06;;;;;;;;;;;4.80;99.90;;;;;;5006777;28;19978;-80
2021/11/26 15:33:12;;;;;;;;;;;4.80;99.90;;;;;;4996196;28;19948;-81
2021/11/26 15:35:43;;;;;;;;;;;4.80;99.90;;;;;;4979256;28;19924;-75
2021/11/26 15:41:06;;;;;;;;;;;4.80;99.90;;;;;;5933002;23;19932;-79
2021/11/26 15:43:36;;;;;;;;;;;4.90;99.90;;;;;;4977074;28;19930;-80
2021/11/26 15:46:03;;;;;;;;;;;4.80;99.90;;;;;;4975168;28;19934;-80
2021/11/26 15:48:31;;;;;;;;;;;4.80;99.90;;;;;;4974871;28;19926;-81
2021/11/26 15:51:10;;;;;;;;;;;4.70;99.90;;;;;;4982743;28;19911;-81
2021/11/26 15:56:15;;;;;;;;;;;4.80;99.90;;;;;;5615080;23;19924;-82
2021/11/26 16:01:19;;;;;;;;;;;4.80;99.90;;;;;;5010997;23;19950;-78